createdAt,value
2022-12-26T00:00:28.309Z,9.105225
2022-12-26T00:01:37.945Z,9.155579
2022-12-26T00:02:45.714Z,9.125366
2022-12-26T00:03:55.421Z,9.075012
2022-12-26T00:05:05.000Z,9.095154
2022-12-26T00:06:13.663Z,9.155579
2022-12-26T00:07:23.392Z,9.17572
2022-12-26T00:08:32.075Z,9.17572
2022-12-26T00:09:40.797Z,9.205933
2022-12-26T00:10:50.477Z,9.185791
2022-12-26T00:11:59.234Z,9.216003
2022-12-26T00:13:36.956Z,9.246216
2022-12-26T00:14:19.476Z,9.286499
2022-12-26T00:15:29.154Z,9.256287
2022-12-26T00:16:38.886Z,9.226074
2022-12-26T00:17:47.481Z,9.226074
2022-12-26T00:18:57.161Z,9.256287
2022-12-26T00:20:05.853Z,9.246216
2022-12-26T00:21:14.522Z,9.256287
2022-12-26T00:22:23.184Z,9.246216
2022-12-26T00:23:31.879Z,9.286499
2022-12-26T00:24:40.567Z,9.306641
2022-12-26T00:25:50.346Z,9.286499
2022-12-26T00:26:59.000Z,9.226074
2022-12-26T00:28:08.695Z,9.135437
2022-12-26T00:29:17.350Z,9.095154
2022-12-26T00:30:26.066Z,9.034729
2022-12-26T00:31:35.862Z,8.994446
2022-12-26T00:32:43.414Z,8.974304
2022-12-26T00:33:53.072Z,8.974304
2022-12-26T00:35:01.790Z,8.944092
2022-12-26T00:36:10.452Z,8.944092
2022-12-26T00:37:20.163Z,8.913879
2022-12-26T00:38:29.835Z,8.893738
2022-12-26T00:39:39.501Z,8.893738
2022-12-26T00:40:48.161Z,8.873596
2022-12-26T00:41:56.881Z,8.843384
2022-12-26T00:43:05.528Z,8.823242
2022-12-26T00:44:15.225Z,8.823242
2022-12-26T00:45:23.888Z,8.823242
2022-12-26T00:46:33.577Z,8.813171
2022-12-26T00:47:43.235Z,8.762817
2022-12-26T00:48:52.886Z,8.782959
2022-12-26T00:50:12.042Z,8.782959
2022-12-26T00:51:13.198Z,8.782959
2022-12-26T00:52:21.874Z,8.762817
2022-12-26T00:53:31.570Z,8.742676
2022-12-26T00:54:40.241Z,8.742676
2022-12-26T00:55:49.919Z,8.79303
2022-12-26T00:56:59.620Z,8.79303
2022-12-26T00:58:07.260Z,8.742676
2022-12-26T00:59:16.957Z,8.762817
2022-12-26T01:00:25.616Z,8.782959
2022-12-26T01:01:34.424Z,8.782959
2022-12-26T01:02:44.162Z,8.813171
2022-12-26T01:03:52.677Z,8.813171
2022-12-26T01:05:02.382Z,8.823242
2022-12-26T01:06:12.054Z,8.853455
2022-12-26T01:07:20.741Z,8.883667
2022-12-26T01:08:30.403Z,8.893738
2022-12-26T01:09:39.128Z,8.913879
2022-12-26T01:10:48.795Z,8.883667
2022-12-26T01:11:58.478Z,8.92395
2022-12-26T01:13:06.140Z,8.913879
2022-12-26T01:14:14.827Z,8.893738
2022-12-26T01:15:24.479Z,8.893738
2022-12-26T01:16:32.253Z,8.873596
2022-12-26T01:17:41.846Z,8.853455
2022-12-26T01:18:50.525Z,8.853455
2022-12-26T01:20:00.214Z,8.823242
2022-12-26T01:21:09.857Z,8.782959
2022-12-26T01:22:19.641Z,8.762817
2022-12-26T01:23:29.302Z,8.712463
2022-12-26T01:24:37.969Z,8.702393
2022-12-26T01:26:16.166Z,8.67218
2022-12-26T01:26:56.285Z,8.702393
2022-12-26T01:28:03.975Z,8.702393
2022-12-26T01:29:12.662Z,8.67218
2022-12-26T01:30:22.378Z,8.67218
2022-12-26T01:31:31.127Z,8.692322
2022-12-26T01:32:40.768Z,8.712463
2022-12-26T01:33:49.513Z,8.742676
2022-12-26T01:34:57.167Z,8.742676
2022-12-26T01:36:05.829Z,8.712463
2022-12-26T01:37:13.489Z,8.67218
2022-12-26T01:38:22.134Z,8.631897
2022-12-26T01:39:31.827Z,8.561401
2022-12-26T01:40:41.492Z,8.531189
2022-12-26T01:41:50.181Z,8.531189
2022-12-26T01:42:58.865Z,8.531189
2022-12-26T01:44:07.546Z,8.521118
2022-12-26T01:45:17.244Z,8.490906
2022-12-26T01:46:24.965Z,8.480835
2022-12-26T01:47:33.555Z,8.460693
2022-12-26T01:48:43.242Z,8.42041
2022-12-26T01:49:51.911Z,8.450623
2022-12-26T01:51:01.619Z,8.42041
2022-12-26T01:52:10.295Z,8.42041
2022-12-26T01:53:19.925Z,8.42041
2022-12-26T01:54:38.824Z,8.42041
2022-12-26T01:55:40.273Z,8.410339
2022-12-26T01:56:49.982Z,8.380127
2022-12-26T01:57:59.644Z,8.440552
2022-12-26T01:59:07.584Z,8.380127
2022-12-26T02:00:16.242Z,8.339844
2022-12-26T02:01:26.063Z,8.359985
2022-12-26T02:02:35.725Z,8.370056
2022-12-26T02:03:45.281Z,8.380127
2022-12-26T02:04:53.955Z,8.339844
2022-12-26T02:06:02.674Z,8.329773
2022-12-26T02:07:12.343Z,8.299561
2022-12-26T02:08:21.058Z,8.309631
2022-12-26T02:09:30.716Z,8.329773
2022-12-26T02:10:39.389Z,8.299561
2022-12-26T02:11:49.059Z,8.329773
2022-12-26T02:12:59.688Z,8.329773
2022-12-26T02:14:08.391Z,8.299561
2022-12-26T02:15:18.040Z,8.259277
2022-12-26T02:16:25.810Z,8.259277
2022-12-26T02:17:34.433Z,8.229065
2022-12-26T02:18:44.152Z,8.259277
2022-12-26T02:19:53.856Z,8.259277
2022-12-26T02:21:03.580Z,8.279419
2022-12-26T02:22:13.269Z,8.259277
2022-12-26T02:23:22.966Z,8.269348
2022-12-26T02:24:32.636Z,8.299561
2022-12-26T02:25:40.340Z,8.299561
2022-12-26T02:26:50.053Z,8.339844
2022-12-26T02:27:59.720Z,8.370056
2022-12-26T02:29:09.421Z,8.380127
2022-12-26T02:30:19.089Z,8.410339
2022-12-26T02:31:27.840Z,8.410339
2022-12-26T02:32:37.488Z,8.359985
2022-12-26T02:33:47.224Z,8.339844
2022-12-26T02:34:56.847Z,8.309631
2022-12-26T02:36:05.497Z,8.279419
2022-12-26T02:37:15.187Z,8.259277
2022-12-26T02:38:23.856Z,8.229065
2022-12-26T02:39:43.032Z,8.229065
2022-12-26T02:40:44.179Z,8.198853
2022-12-26T02:41:52.925Z,8.158569
2022-12-26T02:43:02.636Z,8.148499
2022-12-26T02:44:12.327Z,8.148499
2022-12-26T02:45:21.183Z,8.098145
2022-12-26T02:46:30.951Z,8.078003
2022-12-26T02:47:39.592Z,8.047791
2022-12-26T02:48:48.271Z,8.057861
2022-12-26T02:49:56.962Z,8.057861
2022-12-26T02:51:05.592Z,8.078003
2022-12-26T02:52:15.264Z,8.057861
2022-12-26T02:53:22.914Z,8.047791
2022-12-26T02:54:31.587Z,8.057861
2022-12-26T02:55:41.283Z,8.057861
2022-12-26T02:56:50.945Z,8.078003
2022-12-26T02:58:00.597Z,8.057861
2022-12-26T02:59:10.263Z,8.057861
2022-12-26T03:00:18.977Z,8.047791
2022-12-26T03:01:28.755Z,8.078003
2022-12-26T03:02:37.518Z,8.088074
2022-12-26T03:03:47.008Z,8.098145
2022-12-26T03:04:56.696Z,8.098145
2022-12-26T03:06:06.461Z,8.118286
2022-12-26T03:07:16.113Z,8.098145
2022-12-26T03:08:25.817Z,8.088074
2022-12-26T03:09:34.489Z,8.088074
2022-12-26T03:10:44.203Z,8.088074
2022-12-26T03:11:52.866Z,8.078003
2022-12-26T03:13:01.568Z,8.057861
2022-12-26T03:14:11.251Z,8.007507
2022-12-26T03:15:20.949Z,7.997437
2022-12-26T03:16:30.646Z,7.977295
2022-12-26T03:17:39.306Z,8.007507
2022-12-26T03:18:57.361Z,8.047791
2022-12-26T03:19:58.603Z,8.078003
2022-12-26T03:21:07.270Z,8.118286
2022-12-26T03:22:16.960Z,8.128357
2022-12-26T03:23:26.662Z,8.128357
2022-12-26T03:24:34.322Z,8.098145
2022-12-26T03:25:42.973Z,8.088074
2022-12-26T03:26:52.669Z,8.088074
2022-12-26T03:28:02.338Z,8.098145
2022-12-26T03:29:17.168Z,8.088074
2022-12-26T03:30:22.668Z,8.057861
2022-12-26T03:31:31.361Z,8.078003
2022-12-26T03:32:41.065Z,8.078003
2022-12-26T03:33:50.747Z,8.078003
2022-12-26T03:35:00.438Z,8.098145
2022-12-26T03:36:09.098Z,8.088074
2022-12-26T03:37:17.793Z,8.078003
2022-12-26T03:38:28.550Z,8.027649
2022-12-26T03:39:37.207Z,8.057861
2022-12-26T03:40:46.891Z,8.047791
2022-12-26T03:41:56.565Z,8.047791
2022-12-26T03:43:05.267Z,8.007507
2022-12-26T03:44:14.939Z,7.977295
2022-12-26T03:45:23.592Z,7.947083
2022-12-26T03:46:32.391Z,7.937012
2022-12-26T03:47:41.977Z,7.977295
2022-12-26T03:48:50.641Z,7.977295
2022-12-26T03:50:00.341Z,7.967224
2022-12-26T03:51:10.043Z,7.926941
2022-12-26T03:52:19.734Z,7.926941
2022-12-26T03:53:29.414Z,7.947083
2022-12-26T03:54:38.119Z,7.997437
2022-12-26T03:55:45.773Z,8.047791
2022-12-26T03:56:55.491Z,8.078003
2022-12-26T03:58:04.193Z,8.057861
2022-12-26T03:59:12.899Z,8.078003
2022-12-26T04:00:23.527Z,8.047791
2022-12-26T04:01:32.270Z,8.047791
2022-12-26T04:02:41.840Z,7.977295
2022-12-26T04:03:50.664Z,7.947083
2022-12-26T04:04:58.192Z,7.906799
2022-12-26T04:06:07.857Z,7.826233
2022-12-26T04:07:16.511Z,7.826233
2022-12-26T04:08:25.182Z,7.816162
2022-12-26T04:09:34.854Z,7.796021
2022-12-26T04:10:43.549Z,7.78595
2022-12-26T04:11:53.262Z,7.745667
2022-12-26T04:13:00.925Z,7.755737
2022-12-26T04:14:10.606Z,7.78595
2022-12-26T04:15:19.312Z,7.78595
2022-12-26T04:16:27.971Z,7.765808
2022-12-26T04:17:37.648Z,7.745667
2022-12-26T04:18:46.303Z,7.755737
2022-12-26T04:19:54.989Z,7.745667
2022-12-26T04:21:04.705Z,7.695312
2022-12-26T04:22:12.412Z,7.655029
2022-12-26T04:23:22.150Z,7.655029
2022-12-26T04:24:31.798Z,7.634888
2022-12-26T04:25:48.314Z,7.634888
2022-12-26T04:26:51.186Z,7.614746
2022-12-26T04:28:00.817Z,7.614746
2022-12-26T04:29:10.481Z,7.614746
2022-12-26T04:30:20.150Z,7.604675
2022-12-26T04:31:27.872Z,7.614746
2022-12-26T04:32:37.516Z,7.584534
2022-12-26T04:33:46.177Z,7.584534
2022-12-26T04:34:55.859Z,7.584534
2022-12-26T04:36:05.523Z,7.574463
2022-12-26T04:37:13.204Z,7.564392
2022-12-26T04:38:22.880Z,7.564392
2022-12-26T04:39:32.564Z,7.53418
2022-12-26T04:40:41.234Z,7.514038
2022-12-26T04:41:50.922Z,7.514038
2022-12-26T04:42:59.613Z,7.54425
2022-12-26T04:44:10.295Z,7.564392
2022-12-26T04:45:19.953Z,7.574463
2022-12-26T04:46:27.707Z,7.564392
2022-12-26T04:47:36.320Z,7.53418
2022-12-26T04:48:46.082Z,7.514038
2022-12-26T04:49:54.776Z,7.514038
2022-12-26T04:51:04.448Z,7.473755
2022-12-26T04:52:13.113Z,7.483826
2022-12-26T04:53:21.778Z,7.54425
2022-12-26T04:54:31.440Z,7.53418
2022-12-26T04:55:40.268Z,7.54425
2022-12-26T04:56:49.928Z,7.604675
2022-12-26T04:57:59.621Z,7.584534
2022-12-26T04:59:08.337Z,7.564392
2022-12-26T05:00:17.994Z,7.564392
2022-12-26T05:01:26.842Z,7.604675
2022-12-26T05:02:35.374Z,7.634888
2022-12-26T05:03:45.090Z,7.634888
2022-12-26T05:04:53.714Z,7.634888
2022-12-26T05:06:02.387Z,7.634888
2022-12-26T05:07:12.093Z,7.634888
2022-12-26T05:08:20.750Z,7.634888
2022-12-26T05:09:30.398Z,7.6651
2022-12-26T05:10:40.100Z,7.715454
2022-12-26T05:11:47.755Z,7.755737
2022-12-26T05:12:57.488Z,7.755737
2022-12-26T05:14:06.187Z,7.745667
2022-12-26T05:15:15.963Z,7.745667
2022-12-26T05:16:25.743Z,7.765808
2022-12-26T05:17:33.321Z,7.78595
2022-12-26T05:18:43.046Z,7.765808
2022-12-26T05:19:51.770Z,7.745667
2022-12-26T05:21:01.444Z,7.695312
2022-12-26T05:22:11.111Z,7.715454
2022-12-26T05:23:18.790Z,7.745667
2022-12-26T05:24:28.505Z,7.715454
2022-12-26T05:25:38.259Z,7.715454
2022-12-26T05:26:46.904Z,7.695312
2022-12-26T05:27:56.631Z,7.685242
2022-12-26T05:29:05.346Z,7.6651
2022-12-26T05:30:14.041Z,7.685242
2022-12-26T05:31:23.820Z,7.685242
2022-12-26T05:32:34.390Z,7.685242
2022-12-26T05:33:43.092Z,7.695312
2022-12-26T05:34:52.777Z,7.6651
2022-12-26T05:36:01.473Z,7.655029
2022-12-26T05:37:10.158Z,7.6651
2022-12-26T05:38:18.832Z,7.655029
2022-12-26T05:39:27.512Z,7.604675
2022-12-26T05:40:36.225Z,7.584534
2022-12-26T05:41:45.910Z,7.564392
2022-12-26T05:42:55.572Z,7.564392
2022-12-26T05:44:05.273Z,7.584534
2022-12-26T05:45:14.961Z,7.604675
2022-12-26T05:46:24.666Z,7.614746
2022-12-26T05:47:33.496Z,7.6651
2022-12-26T05:48:44.164Z,7.695312
2022-12-26T05:49:53.829Z,7.695312
2022-12-26T05:51:02.510Z,7.715454
2022-12-26T05:52:11.225Z,7.725525
2022-12-26T05:53:20.906Z,7.715454
2022-12-26T05:54:28.570Z,7.725525
2022-12-26T05:55:38.247Z,7.725525
2022-12-26T05:56:49.525Z,7.715454
2022-12-26T05:57:56.587Z,7.745667
2022-12-26T05:59:06.276Z,7.725525
2022-12-26T06:00:14.963Z,7.715454
2022-12-26T06:01:23.715Z,7.725525
2022-12-26T06:02:33.475Z,7.715454
2022-12-26T06:03:41.085Z,7.695312
2022-12-26T06:04:50.751Z,7.725525
2022-12-26T06:06:00.419Z,7.765808
2022-12-26T06:07:08.087Z,7.796021
2022-12-26T06:08:16.760Z,7.826233
2022-12-26T06:09:25.465Z,7.846375
2022-12-26T06:10:35.174Z,7.926941
2022-12-26T06:11:48.664Z,7.937012
2022-12-26T06:12:52.494Z,7.977295
2022-12-26T06:14:02.181Z,8.007507
2022-12-26T06:15:11.823Z,8.027649
2022-12-26T06:16:21.611Z,8.078003
2022-12-26T06:17:31.237Z,8.118286
2022-12-26T06:18:38.973Z,8.118286
2022-12-26T06:19:49.252Z,8.148499
2022-12-26T06:20:57.903Z,8.148499
2022-12-26T06:22:07.571Z,8.148499
2022-12-26T06:23:17.308Z,8.188782
2022-12-26T06:24:25.001Z,8.259277
2022-12-26T06:25:34.702Z,8.269348
2022-12-26T06:26:43.365Z,8.269348
2022-12-26T06:27:52.044Z,8.299561
2022-12-26T06:29:01.777Z,8.329773
2022-12-26T06:30:10.431Z,8.339844
2022-12-26T06:31:20.202Z,8.370056
2022-12-26T06:32:29.816Z,8.450623
2022-12-26T06:33:39.535Z,8.450623
2022-12-26T06:34:49.196Z,8.460693
2022-12-26T06:35:57.960Z,8.531189
2022-12-26T06:37:06.629Z,8.631897
2022-12-26T06:38:15.330Z,8.702393
2022-12-26T06:39:23.061Z,8.742676
2022-12-26T06:40:30.739Z,8.813171
2022-12-26T06:41:40.439Z,8.813171
2022-12-26T06:42:50.106Z,8.813171
2022-12-26T06:43:59.783Z,8.813171
2022-12-26T06:45:10.476Z,8.823242
2022-12-26T06:46:18.187Z,8.853455
2022-12-26T06:47:27.855Z,8.893738
2022-12-26T06:48:36.578Z,8.913879
2022-12-26T06:49:45.300Z,8.92395
2022-12-26T06:50:55.058Z,8.954163
2022-12-26T06:52:03.723Z,8.954163
2022-12-26T06:53:13.348Z,9.034729
2022-12-26T06:54:23.029Z,9.034729
2022-12-26T06:55:31.700Z,9.0448
2022-12-26T06:56:41.404Z,9.034729
2022-12-26T06:57:50.117Z,9.105225
2022-12-26T06:58:58.817Z,9.135437
2022-12-26T07:00:08.534Z,9.125366
2022-12-26T07:01:18.283Z,9.17572
2022-12-26T07:02:28.047Z,9.185791
2022-12-26T07:03:37.562Z,9.216003
2022-12-26T07:04:48.219Z,9.216003
2022-12-26T07:05:57.916Z,9.246216
2022-12-26T07:07:05.560Z,9.226074
2022-12-26T07:08:15.270Z,9.246216
2022-12-26T07:09:28.447Z,9.256287
2022-12-26T07:10:34.603Z,9.216003
2022-12-26T07:11:44.273Z,9.185791
2022-12-26T07:12:53.975Z,9.216003
2022-12-26T07:14:02.698Z,9.256287
2022-12-26T07:15:12.352Z,9.246216
2022-12-26T07:16:20.055Z,9.216003
2022-12-26T07:17:29.658Z,9.185791
2022-12-26T07:18:39.353Z,9.205933
2022-12-26T07:19:48.136Z,9.205933
2022-12-26T07:20:56.798Z,9.185791
2022-12-26T07:22:05.475Z,9.256287
2022-12-26T07:23:14.170Z,9.276428
2022-12-26T07:24:24.825Z,9.286499
2022-12-26T07:25:33.493Z,9.316711
2022-12-26T07:26:43.212Z,9.356995
2022-12-26T07:27:52.852Z,9.407349
2022-12-26T07:29:02.516Z,9.437561
2022-12-26T07:30:12.190Z,9.54834
2022-12-26T07:31:20.896Z,9.618835
2022-12-26T07:32:29.571Z,9.659119
2022-12-26T07:33:39.280Z,9.659119
2022-12-26T07:34:47.923Z,9.689331
2022-12-26T07:35:57.625Z,9.719543
2022-12-26T07:37:07.395Z,9.759827
2022-12-26T07:38:15.075Z,9.80011
2022-12-26T07:39:24.782Z,9.830322
2022-12-26T07:40:33.460Z,9.870605
2022-12-26T07:41:42.109Z,9.910889
2022-12-26T07:42:50.899Z,9.991455
2022-12-26T07:43:59.565Z,10.041809
2022-12-26T07:45:08.243Z,10.05188
2022-12-26T07:46:17.968Z,10.05188
2022-12-26T07:47:26.574Z,10.122375
2022-12-26T07:48:36.260Z,10.162659
2022-12-26T07:49:44.940Z,10.253296
2022-12-26T07:50:53.612Z,10.263367
2022-12-26T07:52:03.314Z,10.313721
2022-12-26T07:53:13.006Z,10.4245
2022-12-26T07:54:22.727Z,10.494995
2022-12-26T07:55:32.355Z,10.585632
2022-12-26T07:56:41.047Z,10.666199
2022-12-26T07:57:50.701Z,10.67627
2022-12-26T07:59:00.355Z,10.67627
2022-12-26T08:00:09.084Z,10.625916
2022-12-26T08:01:18.958Z,10.605774
2022-12-26T08:02:27.546Z,10.565491
2022-12-26T08:03:36.130Z,10.525208
2022-12-26T08:04:45.745Z,10.494995
2022-12-26T08:05:55.447Z,10.535278
2022-12-26T08:07:05.116Z,10.535278
2022-12-26T08:08:13.804Z,10.535278
2022-12-26T08:09:23.472Z,10.585632
2022-12-26T08:10:32.165Z,10.55542
2022-12-26T08:11:40.881Z,10.635986
2022-12-26T08:12:50.550Z,10.706482
2022-12-26T08:14:00.214Z,10.736694
2022-12-26T08:15:07.887Z,10.776978
2022-12-26T08:16:17.670Z,10.837402
2022-12-26T08:17:27.282Z,10.92804
2022-12-26T08:18:36.939Z,10.988464
2022-12-26T08:19:46.756Z,10.988464
2022-12-26T08:20:54.327Z,10.958252
2022-12-26T08:22:04.009Z,10.887756
2022-12-26T08:23:11.710Z,10.817261
2022-12-26T08:24:21.392Z,10.736694
2022-12-26T08:25:31.076Z,10.756836
2022-12-26T08:26:39.741Z,10.80719
2022-12-26T08:27:49.419Z,10.837402
2022-12-26T08:28:58.133Z,10.857544
2022-12-26T08:30:06.786Z,10.867615
2022-12-26T08:31:16.469Z,10.93811
2022-12-26T08:32:24.166Z,10.988464
2022-12-26T08:33:33.876Z,11.169739
2022-12-26T08:34:43.743Z,11.270447
2022-12-26T08:35:51.420Z,11.371155
2022-12-26T08:37:01.173Z,11.481934
2022-12-26T08:38:09.842Z,11.542358
2022-12-26T08:39:19.512Z,11.69342
2022-12-26T08:40:42.344Z,11.81427
2022-12-26T08:41:39.881Z,11.884766
2022-12-26T08:43:03.231Z,11.985474
2022-12-26T08:44:30.154Z,12.126465
2022-12-26T08:45:10.822Z,12.247314
2022-12-26T08:46:20.606Z,12.348022
2022-12-26T08:47:29.186Z,12.398376
2022-12-26T08:48:37.868Z,12.499084
2022-12-26T08:49:46.539Z,12.549438
2022-12-26T08:50:55.220Z,12.549438
2022-12-26T08:52:04.925Z,12.619934
2022-12-26T08:53:13.595Z,12.640076
2022-12-26T08:54:21.276Z,12.82135
2022-12-26T08:55:30.966Z,12.9422
2022-12-26T08:56:40.626Z,12.972412
2022-12-26T08:57:48.343Z,12.911987
2022-12-26T08:58:58.016Z,13.002625
2022-12-26T09:00:05.718Z,13.083191
2022-12-26T09:01:15.428Z,12.972412
2022-12-26T09:02:25.189Z,12.911987
2022-12-26T09:03:33.782Z,12.901917
2022-12-26T09:04:43.417Z,12.9422
2022-12-26T09:05:52.091Z,12.871704
2022-12-26T09:07:02.776Z,12.871704
2022-12-26T09:08:12.441Z,13.032837
2022-12-26T09:09:21.140Z,13.083191
2022-12-26T09:10:29.853Z,13.19397
2022-12-26T09:11:39.532Z,13.274536
2022-12-26T09:12:49.205Z,13.405457
2022-12-26T09:13:58.880Z,13.455811
2022-12-26T09:15:07.609Z,13.375244
2022-12-26T09:16:16.368Z,13.465881
2022-12-26T09:17:26.043Z,13.465881
2022-12-26T09:18:35.723Z,13.385315
2022-12-26T09:19:44.375Z,13.596802
2022-12-26T09:20:54.078Z,13.707581
2022-12-26T09:22:02.783Z,13.717651
2022-12-26T09:23:12.441Z,13.919067
2022-12-26T09:24:21.114Z,14.029846
2022-12-26T09:25:29.796Z,14.20105
2022-12-26T09:26:39.487Z,14.321899
2022-12-26T09:27:47.161Z,14.513245
2022-12-26T09:28:56.810Z,14.624023
2022-12-26T09:30:06.493Z,14.553528
2022-12-26T09:31:14.238Z,14.593811
2022-12-26T09:32:23.866Z,14.593811
2022-12-26T09:33:33.518Z,14.70459
2022-12-26T09:34:41.278Z,14.785156
2022-12-26T09:35:50.982Z,14.906006
2022-12-26T09:37:00.634Z,15.187988
2022-12-26T09:38:08.336Z,15.248413
2022-12-26T09:39:17.034Z,15.167847
2022-12-26T09:40:25.702Z,15.20813
2022-12-26T09:41:35.407Z,15.147705
2022-12-26T09:42:45.074Z,15.08728
2022-12-26T09:43:54.879Z,14.95636
2022-12-26T09:45:04.570Z,14.885864
2022-12-26T09:46:14.332Z,14.734802
2022-12-26T09:47:23.949Z,14.70459
2022-12-26T09:48:33.648Z,14.634094
2022-12-26T09:49:42.339Z,14.664307
2022-12-26T09:50:52.000Z,14.734802
2022-12-26T09:52:00.734Z,14.906006
2022-12-26T09:53:10.366Z,15.067139
2022-12-26T09:54:20.039Z,15.016785
2022-12-26T09:55:29.746Z,14.724731
2022-12-26T09:57:02.107Z,14.694519
2022-12-26T09:57:49.050Z,14.855652
2022-12-26T09:58:56.760Z,14.966431
2022-12-26T10:00:06.417Z,15.036926
2022-12-26T10:01:15.211Z,14.966431
2022-12-26T10:02:23.914Z,15.187988
2022-12-26T10:03:33.428Z,15.218201
2022-12-26T10:04:41.145Z,15.016785
2022-12-26T10:05:49.777Z,15.057068
2022-12-26T10:06:57.469Z,14.805298
2022-12-26T10:08:07.123Z,14.684448
2022-12-26T10:09:16.807Z,14.70459
2022-12-26T10:10:26.476Z,14.916077
2022-12-26T10:11:36.160Z,14.996643
2022-12-26T10:12:44.827Z,15.268555
2022-12-26T10:13:53.481Z,15.349121
2022-12-26T10:15:03.158Z,15.369263
2022-12-26T10:16:10.868Z,15.520325
2022-12-26T10:17:19.496Z,15.621033
2022-12-26T10:18:29.195Z,15.610962
2022-12-26T10:19:38.852Z,15.671387
2022-12-26T10:20:48.557Z,15.681458
2022-12-26T10:21:58.214Z,15.84259
2022-12-26T10:23:05.907Z,15.913086
2022-12-26T10:24:14.600Z,16.003723
2022-12-26T10:25:23.296Z,15.83252
2022-12-26T10:26:33.920Z,15.913086
2022-12-26T10:27:43.601Z,16.104431
2022-12-26T10:28:52.273Z,16.054077
2022-12-26T10:30:02.030Z,16.205139
2022-12-26T10:31:11.705Z,16.205139
2022-12-26T10:32:24.455Z,16.325989
2022-12-26T10:33:30.013Z,16.386414
2022-12-26T10:34:39.715Z,16.386414
2022-12-26T10:35:49.394Z,16.325989
2022-12-26T10:36:59.104Z,16.205139
2022-12-26T10:38:06.742Z,16.255493
2022-12-26T10:39:16.415Z,16.356201
2022-12-26T10:40:25.096Z,16.386414
2022-12-26T10:41:33.824Z,16.456909
2022-12-26T10:42:43.513Z,16.5979
2022-12-26T10:43:53.187Z,16.507263
2022-12-26T10:45:01.840Z,16.557617
2022-12-26T10:46:11.576Z,16.527405
2022-12-26T10:47:21.227Z,16.537476
2022-12-26T10:48:30.885Z,16.537476
2022-12-26T10:49:40.565Z,16.527405
2022-12-26T10:50:49.280Z,16.487122
2022-12-26T10:51:58.945Z,16.507263
2022-12-26T10:53:07.698Z,16.607971
2022-12-26T10:54:17.333Z,16.638184
2022-12-26T10:55:30.203Z,16.406555
2022-12-26T10:56:36.660Z,16.325989
2022-12-26T10:57:46.341Z,16.205139
2022-12-26T10:58:55.027Z,16.34613
2022-12-26T11:00:03.769Z,16.356201
2022-12-26T11:01:13.436Z,16.235352
2022-12-26T11:02:22.257Z,16.09436
2022-12-26T11:03:30.762Z,16.003723
2022-12-26T11:05:11.500Z,15.953369
2022-12-26T11:06:07.854Z,15.983582
2022-12-26T11:07:01.965Z,15.903015
2022-12-26T11:08:12.644Z,15.862732
2022-12-26T11:09:21.269Z,15.83252
2022-12-26T11:10:30.998Z,15.882874
2022-12-26T11:11:39.675Z,15.913086
2022-12-26T11:12:48.438Z,15.862732
2022-12-26T11:14:01.986Z,15.671387
2022-12-26T11:15:07.820Z,15.610962
2022-12-26T11:16:17.567Z,15.570679
2022-12-26T11:17:26.163Z,15.540466
2022-12-26T11:18:34.850Z,15.520325
2022-12-26T11:19:43.580Z,15.4599
2022-12-26T11:20:51.246Z,15.389404
2022-12-26T11:21:59.921Z,15.278625
2022-12-26T11:23:09.596Z,15.218201
2022-12-26T11:24:18.312Z,15.187988
2022-12-26T11:25:27.948Z,15.167847
2022-12-26T11:26:36.613Z,15.167847
2022-12-26T11:27:45.313Z,15.167847
2022-12-26T11:28:55.000Z,15.147705
2022-12-26T11:30:03.664Z,15.147705
2022-12-26T11:31:12.349Z,15.107422
2022-12-26T11:32:22.046Z,15.067139
2022-12-26T11:33:30.761Z,15.057068
2022-12-26T11:34:40.418Z,14.996643
2022-12-26T11:35:49.074Z,14.966431
2022-12-26T11:36:58.846Z,14.936218
2022-12-26T11:38:08.523Z,14.916077
2022-12-26T11:39:18.196Z,14.875793
2022-12-26T11:40:27.889Z,14.855652
2022-12-26T11:41:37.528Z,14.875793
2022-12-26T11:42:47.265Z,14.875793
2022-12-26T11:43:56.972Z,14.875793
2022-12-26T11:45:05.669Z,14.855652
2022-12-26T11:46:14.352Z,14.83551
2022-12-26T11:47:24.055Z,14.815369
2022-12-26T11:48:32.719Z,14.83551
2022-12-26T11:49:41.391Z,14.805298
2022-12-26T11:50:51.102Z,14.734802
2022-12-26T11:51:59.927Z,14.734802
2022-12-26T11:53:08.442Z,14.724731
2022-12-26T11:54:17.116Z,14.724731
2022-12-26T11:55:25.828Z,14.694519
2022-12-26T11:56:35.561Z,14.70459
2022-12-26T11:57:45.231Z,14.684448
2022-12-26T11:58:55.914Z,14.684448
2022-12-26T12:00:05.580Z,14.664307
2022-12-26T12:01:15.297Z,14.684448
2022-12-26T12:02:25.051Z,14.684448
2022-12-26T12:03:33.729Z,14.664307
2022-12-26T12:04:43.298Z,14.654236
2022-12-26T12:05:51.974Z,14.634094
2022-12-26T12:07:00.657Z,14.624023
2022-12-26T12:08:10.374Z,14.624023
2022-12-26T12:09:19.062Z,14.603882
2022-12-26T12:10:27.806Z,14.603882
2022-12-26T12:11:37.509Z,14.603882
2022-12-26T12:12:46.232Z,14.603882
2022-12-26T12:13:55.900Z,14.624023
2022-12-26T12:15:05.554Z,14.624023
2022-12-26T12:16:14.273Z,14.603882
2022-12-26T12:17:23.906Z,14.624023
2022-12-26T12:18:31.563Z,14.634094
2022-12-26T12:19:41.267Z,14.624023
2022-12-26T12:20:52.068Z,14.593811
2022-12-26T12:21:59.592Z,14.553528
2022-12-26T12:23:09.306Z,14.503174
2022-12-26T12:24:17.966Z,14.442749
2022-12-26T12:25:27.659Z,14.402466
2022-12-26T12:26:37.346Z,14.352112
2022-12-26T12:27:47.044Z,14.291687
2022-12-26T12:28:56.736Z,14.20105
2022-12-26T12:30:06.432Z,13.999634
2022-12-26T12:31:14.134Z,13.717651
2022-12-26T12:32:23.822Z,13.465881
2022-12-26T12:33:32.512Z,13.314819
2022-12-26T12:34:41.196Z,13.163757
2022-12-26T12:35:50.865Z,13.093262
2022-12-26T12:36:58.565Z,13.012695
2022-12-26T12:38:07.259Z,12.952271
2022-12-26T12:39:16.950Z,12.932129
2022-12-26T12:40:24.624Z,12.911987
2022-12-26T12:41:34.319Z,12.871704
2022-12-26T12:42:43.019Z,12.801208
2022-12-26T12:43:50.715Z,12.680359
2022-12-26T12:45:00.405Z,12.458801
2022-12-26T12:46:09.092Z,12.267456
2022-12-26T12:47:18.750Z,12.086182
2022-12-26T12:48:28.465Z,11.995544
2022-12-26T12:49:38.140Z,11.864624
2022-12-26T12:50:50.552Z,11.804199
2022-12-26T12:51:57.483Z,11.753845
2022-12-26T12:53:07.143Z,11.723633
2022-12-26T12:54:16.860Z,11.68335
2022-12-26T12:55:24.519Z,11.632996
2022-12-26T12:56:38.492Z,11.602783
2022-12-26T12:57:43.983Z,11.602783
2022-12-26T12:58:52.664Z,11.542358
2022-12-26T13:00:02.417Z,11.512146
2022-12-26T13:01:12.126Z,11.512146
2022-12-26T13:02:21.883Z,11.502075
2022-12-26T13:03:31.465Z,11.44165
2022-12-26T13:04:39.098Z,11.401367
2022-12-26T13:05:47.933Z,11.361084
2022-12-26T13:06:57.643Z,11.330872
2022-12-26T13:08:07.307Z,11.290588
2022-12-26T13:09:15.036Z,11.270447
2022-12-26T13:10:24.663Z,11.250305
2022-12-26T13:11:33.356Z,11.220093
2022-12-26T13:12:43.033Z,11.149597
2022-12-26T13:13:53.649Z,11.109314
2022-12-26T13:14:59.409Z,11.079102
2022-12-26T13:16:09.151Z,10.988464
2022-12-26T13:17:17.869Z,10.958252
2022-12-26T13:18:27.486Z,10.917969
2022-12-26T13:19:36.152Z,10.887756
2022-12-26T13:20:45.824Z,10.817261
2022-12-26T13:21:55.518Z,10.80719
2022-12-26T13:23:03.325Z,10.787048
2022-12-26T13:24:12.012Z,10.776978
2022-12-26T13:25:21.728Z,10.756836